This is the latest recevied weather packets stored in our database for station/object W0VI. If no packets are shown the sender has not sent any weather packets the latest 10 day(s).
| Time | Temp. | Humidity | Pressure | Rain* | Wind** | Luminosity | Snow |
|---|---|---|---|---|---|---|---|
| 1788105617 | 22.78° C | 89% | 1009.9 hPa | 0 mm | - | 157 W/m² | - |
| 1788105313 | 22.78° C | 89% | 1009.8 hPa | 0 mm | - | 108 W/m² | - |
| 1788105009 | 22.78° C | 88% | 1009.8 hPa | 0 mm | - | 94 W/m² | - |
| 1788104703 | 22.78° C | 88% | 1010 hPa | 0 mm | - | 86 W/m² | - |
| 1788104400 | 23.33° C | 87% | 1009.7 hPa | 0 mm | - | 96 W/m² | - |
| 1788104096 | 23.33° C | 87% | 1009.9 hPa | 0 mm | - | 140 W/m² | - |
| 1788103795 | 23.33° C | 86% | 1009.9 hPa | 0 mm | - | 164 W/m² | - |
| 1788103490 | 23.89° C | 84% | 1009.9 hPa | 0 mm | - | 260 W/m² | - |
| 1788103189 | 23.89° C | 85% | 1009.9 hPa | 0 mm | - | 333 W/m² | - |
| 1788102883 | 23.89° C | 85% | 1009.7 hPa | 0 mm | - | 283 W/m² | - |
| 1788102578 | 23.33° C | 88% | 1009.8 hPa | 0 mm | - | 474 W/m² | - |
| 1788102278 | 22.78° C | 88% | 1009.9 hPa | 0 mm | - | 243 W/m² | - |
| 1788101972 | 22.78° C | 87% | 1009.3 hPa | 0 mm | - | 143 W/m² | - |
| 1788101667 | 22.78° C | 88% | 1009.4 hPa | 0 mm | - | 271 W/m² | - |
| 1788101362 | 22.78° C | 87% | 1009.5 hPa | 0 mm | - | 197 W/m² | - |
| 1788101058 | 22.78° C | 87% | 1009.9 hPa | 0 mm | - | 153 W/m² | - |
| 1788100753 | 22.78° C | 87% | 1009.9 hPa | 0 mm | - | 276 W/m² | - |
| 1788100449 | 22.78° C | 86% | 1010.1 hPa | 0 mm | - | 265 W/m² | - |
| 1788100147 | 22.78° C | 88% | 1010 hPa | 0 mm | - | 390 W/m² | - |
| 1788099843 | 22.22° C | 90% | 1009.9 hPa | 0 mm | - | 261 W/m² | - |
| 1788099537 | 21.67° C | 91% | 1009.9 hPa | 0 mm | - | 376 W/m² | - |
| 1788099233 | 21.67° C | 92% | 1010.1 hPa | 0 mm | - | 249 W/m² | - |
| 1788098928 | 21.11° C | 94% | 1009.9 hPa | 0 mm | - | 117 W/m² | - |
| 1788098623 | 20.56° C | 96% | 1010.2 hPa | 0 mm | - | 146 W/m² | - |
| 1788098322 | 20.56° C | 97% | 1009.8 hPa | 0 mm | - | 124 W/m² | - |
* Rain latest hour (hover to see other rain measurements)
** Current wind speed in m/s (hover to see current wind gust speed)